sensor_id;sensor_type;location;lat;lon;timestamp;pressure;altitude;pressure_sealevel;temperature;humidity
21644;BME280;10983;51.982;9.226;2023-02-22T00:00:41;65387.91;;;-139.23;100.00
21644;BME280;10983;51.982;9.226;2023-02-22T00:04:09;65387.91;;;-139.23;100.00
21644;BME280;10983;51.982;9.226;2023-02-22T00:07:36;65387.91;;;-139.23;100.00
21644;BME280;10983;51.982;9.226;2023-02-22T00:10:46;65387.91;;;-139.23;100.00
21644;BME280;10983;51.982;9.226;2023-02-22T00:13:48;65387.91;;;-139.23;100.00
21644;BME280;10983;51.982;9.226;2023-02-22T00:16:17;69135.00;;;8.90;100.00
21644;BME280;10983;51.982;9.226;2023-02-22T00:19:17;65387.91;;;-139.23;100.00
21644;BME280;10983;51.982;9.226;2023-02-22T00:22:29;65387.91;;;-139.23;100.00
21644;BME280;10983;51.982;9.226;2023-02-22T00:25:56;65387.91;;;-139.23;100.00
21644;BME280;10983;51.982;9.226;2023-02-22T00:28:40;65387.91;;;-139.23;100.00
21644;BME280;10983;51.982;9.226;2023-02-22T00:31:59;65387.91;;;-139.23;100.00
21644;BME280;10983;51.982;9.226;2023-02-22T00:35:09;65387.91;;;-139.23;100.00
21644;BME280;10983;51.982;9.226;2023-02-22T00:38:36;65387.91;;;-139.23;100.00
21644;BME280;10983;51.982;9.226;2023-02-22T00:41:39;65387.91;;;-139.23;100.00
21644;BME280;10983;51.982;9.226;2023-02-22T00:44:34;69135.00;;;8.90;100.00
21644;BME280;10983;51.982;9.226;2023-02-22T00:47:53;65387.91;;;-139.23;100.00
21644;BME280;10983;51.982;9.226;2023-02-22T00:51:03;65387.91;;;-139.23;100.00
21644;BME280;10983;51.982;9.226;2023-02-22T00:54:29;65387.91;;;-139.23;100.00
21644;BME280;10983;51.982;9.226;2023-02-22T00:57:19;65387.91;;;-139.23;100.00
21644;BME280;10983;51.982;9.226;2023-02-22T01:00:25;65387.91;;;-139.23;100.00
21644;BME280;10983;51.982;9.226;2023-02-22T01:03:38;65387.91;;;-139.23;100.00
21644;BME280;10983;51.982;9.226;2023-02-22T01:07:05;65387.91;;;-139.23;100.00
21644;BME280;10983;51.982;9.226;2023-02-22T01:09:54;65387.91;;;-139.23;100.00
21644;BME280;10983;51.982;9.226;2023-02-22T01:13:20;65387.91;;;-139.23;100.00
21644;BME280;10983;51.982;9.226;2023-02-22T01:16:38;65387.91;;;-139.23;100.00
21644;BME280;10983;51.982;9.226;2023-02-22T01:19:10;65387.91;;;-139.23;100.00
21644;BME280;10983;51.982;9.226;2023-02-22T01:22:35;65387.91;;;-139.23;100.00
21644;BME280;10983;51.982;9.226;2023-02-22T01:25:34;65387.91;;;-139.23;100.00
21644;BME280;10983;51.982;9.226;2023-02-22T01:29:01;65387.91;;;-139.23;100.00
21644;BME280;10983;51.982;9.226;2023-02-22T01:31:59;65387.91;;;-139.23;100.00
21644;BME280;10983;51.982;9.226;2023-02-22T01:34:27;65387.91;;;-139.23;100.00
21644;BME280;10983;51.982;9.226;2023-02-22T01:37:48;65387.91;;;-139.23;100.00
21644;BME280;10983;51.982;9.226;2023-02-22T01:40:18;65387.91;;;-139.23;100.00
21644;BME280;10983;51.982;9.226;2023-02-22T01:43:15;65387.91;;;-139.23;100.00
21644;BME280;10983;51.982;9.226;2023-02-22T01:46:20;65387.91;;;-139.23;100.00
21644;BME280;10983;51.982;9.226;2023-02-22T01:49:28;65387.91;;;-139.23;100.00
21644;BME280;10983;51.982;9.226;2023-02-22T01:52:42;65387.91;;;-139.23;100.00
21644;BME280;10983;51.982;9.226;2023-02-22T01:55:51;65387.91;;;-139.23;100.00
21644;BME280;10983;51.982;9.226;2023-02-22T01:58:54;65387.91;;;-139.23;100.00
21644;BME280;10983;51.982;9.226;2023-02-22T02:01:33;65387.91;;;-139.23;100.00
21644;BME280;10983;51.982;9.226;2023-02-22T02:04:10;65387.91;;;-139.23;100.00
21644;BME280;10983;51.982;9.226;2023-02-22T02:06:41;69137.09;;;8.91;100.00
21644;BME280;10983;51.982;9.226;2023-02-22T02:09:13;69138.88;;;8.92;100.00
21644;BME280;10983;51.982;9.226;2023-02-22T02:11:43;69139.56;;;8.93;100.00
21644;BME280;10983;51.982;9.226;2023-02-22T02:14:12;69139.84;;;8.93;100.00
21644;BME280;10983;51.982;9.226;2023-02-22T02:16:43;69139.47;;;8.93;100.00
21644;BME280;10983;51.982;9.226;2023-02-22T02:19:20;69138.66;;;8.92;100.00
21644;BME280;10983;51.982;9.226;2023-02-22T02:25:09;69137.78;;;8.91;100.00
21644;BME280;10983;51.982;9.226;2023-02-22T02:31:13;69133.50;;;8.87;100.00
21644;BME280;10983;51.982;9.226;2023-02-22T02:33:56;69132.53;;;8.86;100.00
21644;BME280;10983;51.982;9.226;2023-02-22T02:36:30;69132.78;;;8.86;100.00
21644;BME280;10983;51.982;9.226;2023-02-22T02:39:06;69129.72;;;8.83;100.00
21644;BME280;10983;51.982;9.226;2023-02-22T02:41:38;69128.22;;;8.82;100.00
21644;BME280;10983;51.982;9.226;2023-02-22T02:44:11;69125.63;;;8.79;100.00
21644;BME280;10983;51.982;9.226;2023-02-22T02:46:46;69123.59;;;8.77;100.00
21644;BME280;10983;51.982;9.226;2023-02-22T02:49:20;69121.28;;;8.75;100.00
21644;BME280;10983;51.982;9.226;2023-02-22T02:51:52;69117.94;;;8.72;100.00
21644;BME280;10983;51.982;9.226;2023-02-22T02:54:21;69115.13;;;8.70;100.00
21644;BME280;10983;51.982;9.226;2023-02-22T02:56:49;69113.09;;;8.68;100.00
21644;BME280;10983;51.982;9.226;2023-02-22T02:59:23;69109.69;;;8.65;100.00
21644;BME280;10983;51.982;9.226;2023-02-22T03:02:08;69107.66;;;8.63;100.00
21644;BME280;10983;51.982;9.226;2023-02-22T03:04:49;69105.88;;;8.62;100.00
21644;BME280;10983;51.982;9.226;2023-02-22T03:07:33;69103.94;;;8.60;100.00
21644;BME280;10983;51.982;9.226;2023-02-22T03:10:19;69102.28;;;8.58;100.00
21644;BME280;10983;51.982;9.226;2023-02-22T03:13:00;69100.72;;;8.57;100.00
21644;BME280;10983;51.982;9.226;2023-02-22T03:15:36;69100.03;;;8.57;100.00
21644;BME280;10983;51.982;9.226;2023-02-22T03:18:14;69100.31;;;8.57;100.00
21644;BME280;10983;51.982;9.226;2023-02-22T03:20:56;69100.84;;;8.57;100.00
21644;BME280;10983;51.982;9.226;2023-02-22T03:23:28;69102.00;;;8.58;100.00
21644;BME280;10983;51.982;9.226;2023-02-22T03:26:00;69102.50;;;8.59;100.00
21644;BME280;10983;51.982;9.226;2023-02-22T03:28:30;69104.34;;;8.60;100.00
21644;BME280;10983;51.982;9.226;2023-02-22T03:31:00;69106.38;;;8.62;100.00
21644;BME280;10983;51.982;9.226;2023-02-22T03:33:31;69109.69;;;8.65;100.00
21644;BME280;10983;51.982;9.226;2023-02-22T03:36:06;69113.59;;;8.69;100.00
21644;BME280;10983;51.982;9.226;2023-02-22T03:38:36;69117.50;;;8.72;100.00
21644;BME280;10983;51.982;9.226;2023-02-22T03:41:07;69120.00;;;8.74;100.00
21644;BME280;10983;51.982;9.226;2023-02-22T03:43:41;69120.38;;;8.75;100.00
21644;BME280;10983;51.982;9.226;2023-02-22T03:46:12;69121.47;;;8.76;100.00
21644;BME280;10983;51.982;9.226;2023-02-22T03:48:45;69123.13;;;8.77;100.00
21644;BME280;10983;51.982;9.226;2023-02-22T03:51:15;69124.41;;;8.78;100.00
21644;BME280;10983;51.982;9.226;2023-02-22T03:53:44;69125.63;;;8.79;100.00
21644;BME280;10983;51.982;9.226;2023-02-22T03:58:45;69130.94;;;8.84;100.00
21644;BME280;10983;51.982;9.226;2023-02-22T04:01:14;69134.09;;;8.87;100.00
21644;BME280;10983;51.982;9.226;2023-02-22T04:03:42;69138.41;;;8.91;100.00
21644;BME280;10983;51.982;9.226;2023-02-22T04:06:10;69141.84;;;8.94;100.00
21644;BME280;10983;51.982;9.226;2023-02-22T04:08:39;69145.16;;;8.97;100.00
21644;BME280;10983;51.982;9.226;2023-02-22T04:11:10;69148.13;;;9.00;100.00
21644;BME280;10983;51.982;9.226;2023-02-22T04:13:37;69152.47;;;9.03;100.00
21644;BME280;10983;51.982;9.226;2023-02-22T04:16:05;69156.22;;;9.07;100.00
21644;BME280;10983;51.982;9.226;2023-02-22T04:18:33;69159.69;;;9.10;100.00
21644;BME280;10983;51.982;9.226;2023-02-22T04:21:01;69163.00;;;9.13;100.00
21644;BME280;10983;51.982;9.226;2023-02-22T04:23:28;69165.78;;;9.15;100.00
21644;BME280;10983;51.982;9.226;2023-02-22T04:25:57;69168.94;;;9.18;100.00
21644;BME280;10983;51.982;9.226;2023-02-22T04:28:24;69172.66;;;9.22;100.00
21644;BME280;10983;51.982;9.226;2023-02-22T04:30:52;69176.25;;;9.25;100.00
21644;BME280;10983;51.982;9.226;2023-02-22T04:33:19;69180.28;;;9.28;100.00
21644;BME280;10983;51.982;9.226;2023-02-22T04:35:47;69184.69;;;9.32;100.00
21644;BME280;10983;51.982;9.226;2023-02-22T04:38:14;69189.28;;;9.36;100.00
21644;BME280;10983;51.982;9.226;2023-02-22T04:40:42;69193.56;;;9.40;100.00
21644;BME280;10983;51.982;9.226;2023-02-22T04:43:11;69197.66;;;9.44;100.00
21644;BME280;10983;51.982;9.226;2023-02-22T04:45:38;69201.97;;;9.48;100.00
21644;BME280;10983;51.982;9.226;2023-02-22T04:48:05;69205.56;;;9.51;100.00
21644;BME280;10983;51.982;9.226;2023-02-22T04:50:33;69209.38;;;9.54;100.00
21644;BME280;10983;51.982;9.226;2023-02-22T04:53:00;69212.53;;;9.57;100.00
21644;BME280;10983;51.982;9.226;2023-02-22T04:55:28;69214.88;;;9.59;100.00
21644;BME280;10983;51.982;9.226;2023-02-22T04:57:55;69217.75;;;9.62;100.00
21644;BME280;10983;51.982;9.226;2023-02-22T05:00:25;69220.13;;;9.64;100.00
21644;BME280;10983;51.982;9.226;2023-02-22T05:02:52;69222.06;;;9.66;100.00
21644;BME280;10983;51.982;9.226;2023-02-22T05:05:20;69224.59;;;9.68;100.00
21644;BME280;10983;51.982;9.226;2023-02-22T05:07:48;69226.16;;;9.69;100.00
21644;BME280;10983;51.982;9.226;2023-02-22T05:10:16;69227.53;;;9.70;100.00
21644;BME280;10983;51.982;9.226;2023-02-22T05:12:43;69228.75;;;9.71;100.00
21644;BME280;10983;51.982;9.226;2023-02-22T05:15:15;69230.13;;;9.73;100.00
21644;BME280;10983;51.982;9.226;2023-02-22T05:17:44;69231.41;;;9.74;100.00
21644;BME280;10983;51.982;9.226;2023-02-22T05:20:16;69232.78;;;9.75;100.00
21644;BME280;10983;51.982;9.226;2023-02-22T05:22:47;69234.44;;;9.76;100.00
21644;BME280;10983;51.982;9.226;2023-02-22T05:25:15;69236.38;;;9.78;100.00
21644;BME280;10983;51.982;9.226;2023-02-22T05:27:42;69237.13;;;9.79;100.00
21644;BME280;10983;51.982;9.226;2023-02-22T05:30:10;69237.94;;;9.80;100.00
21644;BME280;10983;51.982;9.226;2023-02-22T05:32:39;69238.44;;;9.81;100.00
21644;BME280;10983;51.982;9.226;2023-02-22T05:35:08;69239.81;;;9.82;100.00
21644;BME280;10983;51.982;9.226;2023-02-22T05:37:36;69241.25;;;9.83;100.00
21644;BME280;10983;51.982;9.226;2023-02-22T05:40:04;69241.66;;;9.83;100.00
21644;BME280;10983;51.982;9.226;2023-02-22T05:42:32;69242.47;;;9.84;100.00
21644;BME280;10983;51.982;9.226;2023-02-22T05:45:00;69243.31;;;9.85;100.00
21644;BME280;10983;51.982;9.226;2023-02-22T05:47:28;69243.75;;;9.85;100.00
21644;BME280;10983;51.982;9.226;2023-02-22T05:49:56;69244.50;;;9.86;100.00
21644;BME280;10983;51.982;9.226;2023-02-22T05:52:24;69245.47;;;9.86;100.00
21644;BME280;10983;51.982;9.226;2023-02-22T05:54:52;69245.97;;;9.86;100.00
21644;BME280;10983;51.982;9.226;2023-02-22T05:57:19;69245.81;;;9.86;100.00
21644;BME280;10983;51.982;9.226;2023-02-22T05:59:47;69244.91;;;9.86;100.00
21644;BME280;10983;51.982;9.226;2023-02-22T06:02:14;69245.03;;;9.86;100.00
21644;BME280;10983;51.982;9.226;2023-02-22T06:04:43;69245.53;;;9.87;100.00
21644;BME280;10983;51.982;9.226;2023-02-22T06:07:10;69246.97;;;9.88;100.00
21644;BME280;10983;51.982;9.226;2023-02-22T06:09:39;69247.06;;;9.88;100.00
21644;BME280;10983;51.982;9.226;2023-02-22T06:12:07;69247.91;;;9.89;100.00
21644;BME280;10983;51.982;9.226;2023-02-22T06:14:35;69249.47;;;9.90;100.00
21644;BME280;10983;51.982;9.226;2023-02-22T06:17:03;69250.56;;;9.91;100.00
21644;BME280;10983;51.982;9.226;2023-02-22T06:19:31;69251.78;;;9.92;100.00
21644;BME280;10983;51.982;9.226;2023-02-22T06:21:59;69253.50;;;9.94;100.00
21644;BME280;10983;51.982;9.226;2023-02-22T06:24:28;69255.19;;;9.95;100.00
21644;BME280;10983;51.982;9.226;2023-02-22T06:26:59;69257.34;;;9.97;100.00
21644;BME280;10983;51.982;9.226;2023-02-22T06:29:28;69259.38;;;9.99;100.00
21644;BME280;10983;51.982;9.226;2023-02-22T06:31:55;69260.44;;;10.00;100.00
21644;BME280;10983;51.982;9.226;2023-02-22T06:34:23;69262.59;;;10.01;100.00
21644;BME280;10983;51.982;9.226;2023-02-22T06:36:50;69264.31;;;10.03;100.00
21644;BME280;10983;51.982;9.226;2023-02-22T06:39:17;69265.97;;;10.04;100.00
21644;BME280;10983;51.982;9.226;2023-02-22T06:41:46;69267.06;;;10.05;100.00
21644;BME280;10983;51.982;9.226;2023-02-22T06:44:15;69267.91;;;10.06;100.00
21644;BME280;10983;51.982;9.226;2023-02-22T06:46:46;69268.63;;;10.06;100.00
21644;BME280;10983;51.982;9.226;2023-02-22T06:49:14;69269.78;;;10.07;100.00
21644;BME280;10983;51.982;9.226;2023-02-22T06:51:41;69270.06;;;10.07;100.00
21644;BME280;10983;51.982;9.226;2023-02-22T06:54:09;69271.13;;;10.08;100.00
21644;BME280;10983;51.982;9.226;2023-02-22T06:56:38;69271.66;;;10.08;100.00
21644;BME280;10983;51.982;9.226;2023-02-22T06:59:05;69272.72;;;10.09;100.00
21644;BME280;10983;51.982;9.226;2023-02-22T07:01:35;69274.66;;;10.11;100.00
21644;BME280;10983;51.982;9.226;2023-02-22T07:04:02;69276.72;;;10.13;100.00
21644;BME280;10983;51.982;9.226;2023-02-22T07:06:30;69279.19;;;10.15;100.00
21644;BME280;10983;51.982;9.226;2023-02-22T07:08:57;69281.97;;;10.18;100.00
21644;BME280;10983;51.982;9.226;2023-02-22T07:11:25;69285.06;;;10.20;100.00
21644;BME280;10983;51.982;9.226;2023-02-22T07:13:52;69288.56;;;10.23;100.00
21644;BME280;10983;51.982;9.226;2023-02-22T07:16:20;69292.03;;;10.26;100.00
21644;BME280;10983;51.982;9.226;2023-02-22T07:18:49;69295.19;;;10.29;100.00
21644;BME280;10983;51.982;9.226;2023-02-22T07:21:16;69298.84;;;10.32;100.00
21644;BME280;10983;51.982;9.226;2023-02-22T07:23:51;69301.06;;;10.34;100.00
21644;BME280;10983;51.982;9.226;2023-02-22T07:26:21;69303.56;;;10.36;100.00
21644;BME280;10983;51.982;9.226;2023-02-22T07:28:48;69306.38;;;10.39;100.00
21644;BME280;10983;51.982;9.226;2023-02-22T07:31:16;69309.03;;;10.41;100.00
21644;BME280;10983;51.982;9.226;2023-02-22T07:33:45;69311.38;;;10.43;100.00
21644;BME280;10983;51.982;9.226;2023-02-22T07:36:14;69313.69;;;10.45;100.00
21644;BME280;10983;51.982;9.226;2023-02-22T07:38:43;69313.69;;;10.45;100.00
21644;BME280;10983;51.982;9.226;2023-02-22T07:41:12;69317.84;;;10.49;100.00
21644;BME280;10983;51.982;9.226;2023-02-22T07:43:40;69321.50;;;10.52;100.00
21644;BME280;10983;51.982;9.226;2023-02-22T07:46:07;69325.09;;;10.55;100.00
21644;BME280;10983;51.982;9.226;2023-02-22T07:48:34;69329.16;;;10.59;100.00
21644;BME280;10983;51.982;9.226;2023-02-22T07:51:02;69334.19;;;10.63;100.00
21644;BME280;10983;51.982;9.226;2023-02-22T07:53:32;69340.00;;;10.68;100.00
21644;BME280;10983;51.982;9.226;2023-02-22T07:56:01;69344.75;;;10.72;100.00
21644;BME280;10983;51.982;9.226;2023-02-22T07:58:31;69350.47;;;10.77;100.00
21644;BME280;10983;51.982;9.226;2023-02-22T08:00:59;69356.72;;;10.83;100.00
21644;BME280;10983;51.982;9.226;2023-02-22T08:03:31;69362.81;;;10.88;100.00
21644;BME280;10983;51.982;9.226;2023-02-22T08:06:03;69367.91;;;10.93;100.00
21644;BME280;10983;51.982;9.226;2023-02-22T08:08:32;69374.69;;;10.99;100.00
21644;BME280;10983;51.982;9.226;2023-02-22T08:11:00;69380.59;;;11.04;100.00
21644;BME280;10983;51.982;9.226;2023-02-22T08:13:27;69387.03;;;11.10;100.00
21644;BME280;10983;51.982;9.226;2023-02-22T08:15:55;69392.75;;;11.15;100.00
21644;BME280;10983;51.982;9.226;2023-02-22T08:18:23;69399.38;;;11.21;100.00
21644;BME280;10983;51.982;9.226;2023-02-22T08:20:52;69405.94;;;11.26;100.00
21644;BME280;10983;51.982;9.226;2023-02-22T08:23:22;69413.13;;;11.33;100.00
21644;BME280;10983;51.982;9.226;2023-02-22T08:25:53;69420.56;;;11.39;100.00
21644;BME280;10983;51.982;9.226;2023-02-22T08:28:23;69426.72;;;11.44;100.00
21644;BME280;10983;51.982;9.226;2023-02-22T08:30:51;69431.41;;;11.48;100.00
21644;BME280;10983;51.982;9.226;2023-02-22T08:33:19;69433.22;;;11.50;100.00
21644;BME280;10983;51.982;9.226;2023-02-22T08:35:48;69435.72;;;11.52;100.00
21644;BME280;10983;51.982;9.226;2023-02-22T08:38:19;69438.09;;;11.54;100.00
21644;BME280;10983;51.982;9.226;2023-02-22T08:40:47;69441.97;;;11.58;100.00
21644;BME280;10983;51.982;9.226;2023-02-22T08:43:17;69446.16;;;11.62;100.00
21644;BME280;10983;51.982;9.226;2023-02-22T08:45:46;69450.19;;;11.65;100.00
21644;BME280;10983;51.982;9.226;2023-02-22T08:48:15;69455.72;;;11.70;100.00
21644;BME280;10983;51.982;9.226;2023-02-22T08:50:42;69460.34;;;11.74;100.00
21644;BME280;10983;51.982;9.226;2023-02-22T08:53:12;69466.22;;;11.79;100.00
21644;BME280;10983;51.982;9.226;2023-02-22T08:55:40;69469.66;;;11.82;100.00
21644;BME280;10983;51.982;9.226;2023-02-22T08:58:08;69474.25;;;11.86;100.00
21644;BME280;10983;51.982;9.226;2023-02-22T09:00:39;69481.41;;;11.93;100.00
21644;BME280;10983;51.982;9.226;2023-02-22T09:03:09;69489.44;;;12.00;100.00
21644;BME280;10983;51.982;9.226;2023-02-22T09:05:38;69498.22;;;12.08;100.00
21644;BME280;10983;51.982;9.226;2023-02-22T09:08:09;69507.38;;;12.16;100.00
21644;BME280;10983;51.982;9.226;2023-02-22T09:10:36;69518.69;;;12.26;100.00
21644;BME280;10983;51.982;9.226;2023-02-22T09:13:04;69529.06;;;12.36;100.00
21644;BME280;10983;51.982;9.226;2023-02-22T09:15:32;69538.22;;;12.44;100.00
21644;BME280;10983;51.982;9.226;2023-02-22T09:18:03;69546.09;;;12.50;100.00
21644;BME280;10983;51.982;9.226;2023-02-22T09:20:33;69551.94;;;12.56;100.00
21644;BME280;10983;51.982;9.226;2023-02-22T09:23:02;69558.88;;;12.62;100.00
21644;BME280;10983;51.982;9.226;2023-02-22T09:25:30;69564.50;;;12.67;100.00
21644;BME280;10983;51.982;9.226;2023-02-22T09:27:59;69571.44;;;12.73;100.00
21644;BME280;10983;51.982;9.226;2023-02-22T09:30:31;69580.41;;;12.81;100.00
21644;BME280;10983;51.982;9.226;2023-02-22T09:33:01;69589.53;;;12.89;100.00
21644;BME280;10983;51.982;9.226;2023-02-22T09:35:31;69598.69;;;12.97;100.00
21644;BME280;10983;51.982;9.226;2023-02-22T09:38:03;69605.84;;;13.04;100.00
21644;BME280;10983;51.982;9.226;2023-02-22T09:40:32;69611.13;;;13.09;100.00
21644;BME280;10983;51.982;9.226;2023-02-22T09:43:20;69615.84;;;13.13;100.00
21644;BME280;10983;51.982;9.226;2023-02-22T09:46:03;69620.16;;;13.17;100.00
21644;BME280;10983;51.982;9.226;2023-02-22T09:48:35;69623.91;;;13.20;100.00
21644;BME280;10983;51.982;9.226;2023-02-22T09:51:11;69629.75;;;13.25;100.00
21644;BME280;10983;51.982;9.226;2023-02-22T09:53:43;69632.81;;;13.28;100.00
21644;BME280;10983;51.982;9.226;2023-02-22T09:56:13;69639.06;;;13.34;100.00
21644;BME280;10983;51.982;9.226;2023-02-22T09:58:45;69647.78;;;13.42;100.00
21644;BME280;10983;51.982;9.226;2023-02-22T10:01:21;69656.50;;;13.49;100.00
21644;BME280;10983;51.982;9.226;2023-02-22T10:03:52;69665.66;;;13.58;100.00
21644;BME280;10983;51.982;9.226;2023-02-22T10:06:23;69677.03;;;13.68;100.00
21644;BME280;10983;51.982;9.226;2023-02-22T10:08:53;69684.66;;;13.75;100.00
21644;BME280;10983;51.982;9.226;2023-02-22T10:11:32;69694.88;;;13.83;100.00
21644;BME280;10983;51.982;9.226;2023-02-22T10:14:22;69707.63;;;13.95;100.00
21644;BME280;10983;51.982;9.226;2023-02-22T10:16:56;69725.63;;;14.11;100.00
21644;BME280;10983;51.982;9.226;2023-02-22T10:19:30;69743.13;;;14.26;100.00
21644;BME280;10983;51.982;9.226;2023-02-22T10:22:17;69761.22;;;14.42;100.00
21644;BME280;10983;51.982;9.226;2023-02-22T10:24:53;69778.47;;;14.58;100.00
21644;BME280;10983;51.982;9.226;2023-02-22T10:27:28;69794.59;;;14.72;100.00
21644;BME280;10983;51.982;9.226;2023-02-22T10:30:04;69808.81;;;14.84;100.00
21644;BME280;10983;51.982;9.226;2023-02-22T10:32:53;69823.06;;;14.97;100.00
21644;BME280;10983;51.982;9.226;2023-02-22T10:35:26;69841.41;;;15.13;100.00
21644;BME280;10983;51.982;9.226;2023-02-22T10:37:58;69856.69;;;15.27;100.00
21644;BME280;10983;51.982;9.226;2023-02-22T10:40:28;69874.88;;;15.43;100.00
21644;BME280;10983;51.982;9.226;2023-02-22T10:43:02;69894.78;;;15.61;100.00
21644;BME280;10983;51.982;9.226;2023-02-22T10:45:31;69908.25;;;15.73;100.00
21644;BME280;10983;51.982;9.226;2023-02-22T10:48:03;69916.75;;;15.80;100.00
21644;BME280;10983;51.982;9.226;2023-02-22T10:50:35;69923.00;;;15.86;100.00
21644;BME280;10983;51.982;9.226;2023-02-22T10:53:06;69928.13;;;15.91;100.00
21644;BME280;10983;51.982;9.226;2023-02-22T10:55:35;69933.28;;;15.95;100.00
21644;BME280;10983;51.982;9.226;2023-02-22T10:58:05;69944.44;;;16.05;100.00
21644;BME280;10983;51.982;9.226;2023-02-22T11:00:34;69960.28;;;16.19;100.00
21644;BME280;10983;51.982;9.226;2023-02-22T11:03:05;69975.91;;;16.33;100.00
21644;BME280;10983;51.982;9.226;2023-02-22T11:05:42;69992.59;;;16.48;100.00
21644;BME280;10983;51.982;9.226;2023-02-22T11:08:25;70002.09;;;16.57;100.00
21644;BME280;10983;51.982;9.226;2023-02-22T11:10:55;70015.03;;;16.68;100.00
21644;BME280;10983;51.982;9.226;2023-02-22T11:13:26;70027.34;;;16.79;100.00
21644;BME280;10983;51.982;9.226;2023-02-22T11:15:57;70034.19;;;16.85;100.00
21644;BME280;10983;51.982;9.226;2023-02-22T11:18:28;70041.13;;;16.91;100.00
21644;BME280;10983;51.982;9.226;2023-02-22T11:21:01;70050.03;;;16.99;100.00
21644;BME280;10983;51.982;9.226;2023-02-22T11:23:32;70056.16;;;17.04;100.00
21644;BME280;10983;51.982;9.226;2023-02-22T11:26:04;70067.69;;;17.15;100.00
21644;BME280;10983;51.982;9.226;2023-02-22T11:28:33;70080.59;;;17.26;100.00
21644;BME280;10983;51.982;9.226;2023-02-22T11:31:10;70089.44;;;17.34;100.00
21644;BME280;10983;51.982;9.226;2023-02-22T11:33:45;70096.75;;;17.40;100.00
21644;BME280;10983;51.982;9.226;2023-02-22T11:36:33;70103.97;;;17.47;100.00
21644;BME280;10983;51.982;9.226;2023-02-22T11:39:05;70109.00;;;17.51;100.00
21644;BME280;10983;51.982;9.226;2023-02-22T11:41:37;70113.00;;;17.55;100.00
21644;BME280;10983;51.982;9.226;2023-02-22T11:44:13;70120.13;;;17.61;100.00
21644;BME280;10983;51.982;9.226;2023-02-22T11:46:41;70123.75;;;17.64;100.00
21644;BME280;10983;51.982;9.226;2023-02-22T11:49:11;70131.31;;;17.71;100.00
21644;BME280;10983;51.982;9.226;2023-02-22T11:52:06;70140.31;;;17.79;100.00
21644;BME280;10983;51.982;9.226;2023-02-22T11:54:50;70147.91;;;17.86;100.00
21644;BME280;10983;51.982;9.226;2023-02-22T11:57:34;70158.81;;;17.95;100.00
21644;BME280;10983;51.982;9.226;2023-02-22T12:00:14;70168.28;;;18.03;100.00
21644;BME280;10983;51.982;9.226;2023-02-22T12:03:09;70174.16;;;18.09;100.00
21644;BME280;10983;51.982;9.226;2023-02-22T12:05:53;70179.28;;;18.13;100.00
21644;BME280;10983;51.982;9.226;2023-02-22T12:08:35;70186.41;;;18.20;100.00
21644;BME280;10983;51.982;9.226;2023-02-22T12:11:12;70192.19;;;18.25;100.00
21644;BME280;10983;51.982;9.226;2023-02-22T12:13:55;70202.97;;;18.35;100.00
21644;BME280;10983;51.982;9.226;2023-02-22T12:16:34;70218.53;;;18.49;100.00
21644;BME280;10983;51.982;9.226;2023-02-22T12:19:12;70237.09;;;18.65;100.00
21644;BME280;10983;51.982;9.226;2023-02-22T12:21:43;70256.22;;;18.82;100.00
21644;BME280;10983;51.982;9.226;2023-02-22T12:24:15;70277.38;;;19.01;100.00
21644;BME280;10983;51.982;9.226;2023-02-22T12:26:49;70295.66;;;19.17;100.00
21644;BME280;10983;51.982;9.226;2023-02-22T12:29:25;70306.75;;;19.28;100.00
21644;BME280;10983;51.982;9.226;2023-02-22T12:31:56;70315.91;;;19.36;100.00
21644;BME280;10983;51.982;9.226;2023-02-22T12:34:31;70316.59;;;19.37;100.00
21644;BME280;10983;51.982;9.226;2023-02-22T12:37:09;70316.25;;;19.37;100.00
21644;BME280;10983;51.982;9.226;2023-02-22T12:39:44;70316.91;;;19.38;100.00
21644;BME280;10983;51.982;9.226;2023-02-22T12:42:25;70318.09;;;19.39;100.00
21644;BME280;10983;51.982;9.226;2023-02-22T12:44:58;70320.38;;;19.41;100.00
21644;BME280;10983;51.982;9.226;2023-02-22T12:47:30;70324.28;;;19.44;100.00
21644;BME280;10983;51.982;9.226;2023-02-22T12:50:04;70331.66;;;19.51;100.00
21644;BME280;10983;51.982;9.226;2023-02-22T12:52:43;70342.63;;;19.61;100.00
21644;BME280;10983;51.982;9.226;2023-02-22T12:55:15;70351.56;;;19.69;100.00
21644;BME280;10983;51.982;9.226;2023-02-22T12:57:53;70364.63;;;19.81;100.00
21644;BME280;10983;51.982;9.226;2023-02-22T13:00:26;70378.19;;;19.93;100.00
21644;BME280;10983;51.982;9.226;2023-02-22T13:02:57;70389.00;;;20.03;100.00
21644;BME280;10983;51.982;9.226;2023-02-22T13:05:29;70396.22;;;20.09;100.00
21644;BME280;10983;51.982;9.226;2023-02-22T13:08:06;70408.34;;;20.20;100.00
21644;BME280;10983;51.982;9.226;2023-02-22T13:10:52;70423.69;;;20.34;100.00
21644;BME280;10983;51.982;9.226;2023-02-22T13:13:30;70434.81;;;20.44;100.00
21644;BME280;10983;51.982;9.226;2023-02-22T13:16:05;70447.88;;;20.56;100.00
21644;BME280;10983;51.982;9.226;2023-02-22T13:18:39;70456.53;;;20.64;100.00
21644;BME280;10983;51.982;9.226;2023-02-22T13:21:15;70467.97;;;20.74;100.00
21644;BME280;10983;51.982;9.226;2023-02-22T13:23:49;70482.94;;;20.87;100.00
21644;BME280;10983;51.982;9.226;2023-02-22T13:26:23;70495.91;;;20.99;100.00
21644;BME280;10983;51.982;9.226;2023-02-22T13:28:58;70503.72;;;21.06;100.00
21644;BME280;10983;51.982;9.226;2023-02-22T13:31:47;70510.81;;;21.12;100.00
21644;BME280;10983;51.982;9.226;2023-02-22T13:34:27;70518.22;;;21.19;100.00
21644;BME280;10983;51.982;9.226;2023-02-22T13:37:10;70530.78;;;21.30;100.00
21644;BME280;10983;51.982;9.226;2023-02-22T13:39:53;70544.53;;;21.42;100.00
21644;BME280;10983;51.982;9.226;2023-02-22T13:42:45;70559.53;;;21.55;100.00
21644;BME280;10983;51.982;9.226;2023-02-22T13:45:49;70574.59;;;21.69;100.00